Time;durP1;ratioP1;P1;durP2;ratioP2;P2;SDS_P1;SDS_P2;PMS_P1;PMS_P2;Temp;Humidity;BMP_temperature;BMP_pressure;BME280_temperature;BME280_humidity;BME280_pressure;Samples;Min_cycle;Max_cycle;Signal;HPM_P1;HPM_P2
2021/10/12 00:00:10;;;;;;;9.60;3.35;;;;;;;10.64;96.20;102071.44;5011780;28;20053;-77
2021/10/12 00:02:37;;;;;;;13.77;4.35;;;;;;;10.60;96.71;102069.72;5004796;28;20466;-76
2021/10/12 00:05:04;;;;;;;12.43;3.92;;;;;;;10.62;96.77;102071.47;5007751;28;20507;-76
2021/10/12 00:07:32;;;;;;;10.48;3.65;;;;;;;10.61;97.49;102066.25;5008578;28;20042;-76
2021/10/12 00:09:58;;;;;;;12.10;3.85;;;;;;;10.63;97.34;102064.53;5010901;28;20050;-76
2021/10/12 00:12:25;;;;;;;12.52;4.43;;;;;;;10.55;98.33;102061.91;5003662;28;20056;-76
2021/10/12 00:14:51;;;;;;;12.88;4.55;;;;;;;10.56;98.12;102054.09;5008818;28;20054;-76
2021/10/12 00:17:19;;;;;;;15.75;4.68;;;;;;;10.56;98.61;102054.09;5005595;28;20048;-76
2021/10/12 00:19:45;;;;;;;14.25;5.15;;;;;;;10.56;98.81;102063.66;5008900;28;20052;-76
2021/10/12 00:22:12;;;;;;;13.70;5.07;;;;;;;10.54;98.87;102061.03;5006004;28;20041;-77
2021/10/12 00:24:38;;;;;;;16.33;4.68;;;;;;;10.53;99.25;102064.50;5008868;28;20049;-76
2021/10/12 00:27:05;;;;;;;12.35;4.50;;;;;;;10.50;99.38;102061.00;5012752;28;20078;-76
2021/10/12 00:29:31;;;;;;;10.90;4.43;;;;;;;10.49;100.00;102056.66;5013560;28;20053;-75
2021/10/12 00:31:58;;;;;;;15.52;5.30;;;;;;;10.45;100.00;102050.59;5000368;28;20054;-75
2021/10/12 00:34:26;;;;;;;17.60;5.55;;;;;;;10.45;100.00;102055.81;5005244;28;20056;-76
2021/10/12 00:36:52;;;;;;;12.52;4.38;;;;;;;10.44;100.00;102048.84;5012832;28;20056;-76
2021/10/12 00:39:19;;;;;;;12.68;4.40;;;;;;;10.50;100.00;102043.69;5003722;28;20053;-76
2021/10/12 00:41:45;;;;;;;14.32;4.75;;;;;;;10.51;100.00;102047.16;5008297;28;22301;-76
2021/10/12 00:44:12;;;;;;;19.42;5.13;;;;;;;10.47;100.00;102042.81;5007669;28;20419;-76
2021/10/12 00:46:38;;;;;;;15.02;5.22;;;;;;;10.39;100.00;102040.19;5008961;28;20080;-76
2021/10/12 00:49:05;;;;;;;14.45;5.20;;;;;;;10.36;100.00;102035.81;5005569;28;20050;-76
2021/10/12 00:51:33;;;;;;;17.80;5.70;;;;;;;10.37;100.00;102040.19;5007945;28;20049;-75
2021/10/12 00:54:00;;;;;;;17.42;5.30;;;;;;;10.40;100.00;102031.53;5010052;28;20045;-75
2021/10/12 00:56:26;;;;;;;23.05;6.47;;;;;;;10.39;100.00;102024.59;5016416;28;20052;-75
2021/10/12 00:58:53;;;;;;;12.02;5.00;;;;;;;10.40;100.00;102023.72;5005977;28;20057;-75
2021/10/12 01:01:19;;;;;;;15.95;5.15;;;;;;;10.44;100.00;102022.00;5006326;28;20108;-74
2021/10/12 01:03:46;;;;;;;13.80;5.18;;;;;;;10.46;100.00;102017.66;5008577;28;20456;-75
2021/10/12 01:06:12;;;;;;;14.65;4.70;;;;;;;10.45;100.00;102016.78;5011350;28;20058;-75
2021/10/12 01:08:40;;;;;;;13.45;5.10;;;;;;;10.46;100.00;102018.53;5007653;28;20041;-75
2021/10/12 01:11:08;;;;;;;20.35;5.80;;;;;;;10.46;100.00;102009.88;4998031;28;20112;-75
2021/10/12 01:13:34;;;;;;;15.40;5.45;;;;;;;10.45;100.00;102014.19;5008783;28;20049;-73
2021/10/12 01:16:01;;;;;;;17.27;6.78;;;;;;;10.47;100.00;102007.25;5004330;28;20415;-75
2021/10/12 01:18:28;;;;;;;15.27;5.63;;;;;;;10.47;100.00;102002.06;5010417;28;20046;-74
2021/10/12 01:20:56;;;;;;;14.88;4.57;;;;;;;10.49;100.00;102010.72;5008343;28;20054;-76
2021/10/12 01:23:22;;;;;;;13.63;5.18;;;;;;;10.53;100.00;102001.19;5007711;28;20470;-75
2021/10/12 01:25:49;;;;;;;17.95;5.22;;;;;;;10.52;100.00;102007.25;5006416;28;20038;-75
2021/10/12 01:28:16;;;;;;;14.90;5.78;;;;;;;10.48;100.00;102003.78;5001796;28;20042;-73
2021/10/12 01:30:43;;;;;;;14.73;5.10;;;;;;;10.54;100.00;101998.59;5008160;28;20061;-75
2021/10/12 01:33:10;;;;;;;17.52;5.25;;;;;;;10.53;100.00;101996.84;5002008;28;20057;-74
2021/10/12 01:35:37;;;;;;;20.33;5.45;;;;;;;10.49;100.00;101999.44;5004451;28;20100;-75
2021/10/12 01:38:04;;;;;;;15.32;5.35;;;;;;;10.54;100.00;101993.38;5004306;28;20046;-75
2021/10/12 01:40:31;;;;;;;12.45;4.85;;;;;;;10.51;100.00;101995.13;5008194;28;20053;-75
2021/10/12 01:42:58;;;;;;;11.45;5.00;;;;;;;10.50;100.00;101991.66;5005177;28;20060;-75
2021/10/12 01:45:25;;;;;;;12.80;4.82;;;;;;;10.48;100.00;101984.72;5010405;28;20050;-75
2021/10/12 01:47:53;;;;;;;15.93;5.35;;;;;;;10.47;100.00;101986.44;5003334;28;20074;-74
2021/10/12 01:50:21;;;;;;;11.00;5.35;;;;;;;10.47;100.00;101986.44;5012338;28;20049;-74
2021/10/12 01:52:47;;;;;;;14.88;5.55;;;;;;;10.45;100.00;101982.97;5009462;28;20073;-73
2021/10/12 01:55:16;;;;;;;12.80;5.55;;;;;;;10.43;100.00;101976.91;5015552;28;20061;-75
2021/10/12 01:57:42;;;;;;;17.05;4.97;;;;;;;10.40;100.00;101969.94;5002759;28;20451;-75
2021/10/12 02:00:10;;;;;;;12.98;5.28;;;;;;;10.41;100.00;101970.84;5007655;28;20422;-76
2021/10/12 02:02:37;;;;;;;12.60;4.93;;;;;;;10.36;100.00;101956.91;5012853;28;20419;-75
2021/10/12 02:05:03;;;;;;;12.63;6.13;;;;;;;10.36;100.00;101960.41;5007077;28;20462;-75
2021/10/12 02:07:30;;;;;;;13.02;5.07;;;;;;;10.37;100.00;101959.56;5007379;28;20458;-75
2021/10/12 02:09:56;;;;;;;11.38;5.07;;;;;;;10.34;100.00;101959.53;4998237;28;20054;-76
2021/10/12 02:12:24;;;;;;;14.35;5.95;;;;;;;10.34;100.00;101946.53;4997369;28;20050;-76
2021/10/12 02:14:50;;;;;;;17.45;6.55;;;;;;;10.33;100.00;101946.53;5008673;28;20057;-75
2021/10/12 02:17:17;;;;;;;14.07;5.43;;;;;;;10.30;100.00;101941.31;5009354;28;20553;-74
2021/10/12 02:19:43;;;;;;;14.82;5.20;;;;;;;10.31;100.00;101943.06;5003044;28;20059;-75
2021/10/12 02:22:10;;;;;;;11.98;5.03;;;;;;;10.27;100.00;101940.44;5001291;28;20050;-75
2021/10/12 02:24:36;;;;;;;12.73;4.72;;;;;;;10.28;100.00;101928.31;5014959;28;20056;-76
2021/10/12 02:27:03;;;;;;;14.57;5.32;;;;;;;10.28;100.00;101928.31;5002833;28;20100;-75
2021/10/12 02:29:31;;;;;;;14.30;4.80;;;;;;;10.27;100.00;101926.56;5002488;28;20052;-75
2021/10/12 02:31:57;;;;;;;15.40;4.43;;;;;;;10.29;100.00;101918.78;5007293;28;20062;-74
2021/10/12 02:34:24;;;;;;;10.80;4.13;;;;;;;10.30;100.00;101917.91;5005264;28;20045;-76
2021/10/12 02:36:50;;;;;;;13.40;4.85;;;;;;;10.30;100.00;101916.16;5005063;28;20073;-75
2021/10/12 02:39:16;;;;;;;11.95;4.65;;;;;;;10.26;100.00;101914.44;5003633;28;20463;-76
2021/10/12 02:41:43;;;;;;;10.82;4.90;;;;;;;10.24;100.00;101909.22;5000168;28;20050;-76
2021/10/12 02:44:09;;;;;;;14.13;5.25;;;;;;;10.23;100.00;101901.44;5005481;28;20053;-76
2021/10/12 02:46:37;;;;;;;12.30;4.85;;;;;;;10.23;100.00;101889.28;5000570;28;20096;-75
2021/10/12 02:49:04;;;;;;;12.32;4.57;;;;;;;10.26;100.00;101891.88;5000374;28;20134;-76
2021/10/12 02:51:30;;;;;;;12.07;4.57;;;;;;;10.22;100.00;101891.88;4995292;28;20050;-77
2021/10/12 02:53:56;;;;;;;11.35;4.75;;;;;;;10.26;100.00;101881.50;5007553;28;20054;-76
2021/10/12 02:56:23;;;;;;;13.75;5.30;;;;;;;10.22;100.00;101876.28;4998115;28;20050;-76
2021/10/12 02:58:49;;;;;;;14.32;4.63;;;;;;;10.24;100.00;101877.16;5005064;28;20049;-76
2021/10/12 03:01:16;;;;;;;14.45;4.70;;;;;;;10.23;100.00;101867.63;5008895;28;20055;-75
2021/10/12 03:03:44;;;;;;;12.27;4.80;;;;;;;10.22;100.00;101866.78;5012400;28;20053;-76
2021/10/12 03:06:10;;;;;;;15.13;5.65;;;;;;;10.23;100.00;101858.06;5010803;28;20046;-76
2021/10/12 03:08:37;;;;;;;16.20;5.70;;;;;;;10.22;100.00;101853.78;5010194;28;20056;-76
2021/10/12 03:11:03;;;;;;;17.08;5.50;;;;;;;10.25;100.00;101856.34;5013312;28;20041;-77
2021/10/12 03:13:30;;;;;;;11.20;4.85;;;;;;;10.25;100.00;101856.34;5015681;28;20057;-76
2021/10/12 03:15:56;;;;;;;15.50;5.40;;;;;;;10.22;100.00;101861.56;5009957;28;20057;-76
2021/10/12 03:18:23;;;;;;;10.48;5.07;;;;;;;10.23;100.00;101863.28;5012168;28;20042;-76
2021/10/12 03:20:51;;;;;;;13.73;6.03;;;;;;;10.19;100.00;101858.06;5009510;28;20060;-76
2021/10/12 03:23:17;;;;;;;13.77;5.63;;;;;;;10.10;100.00;101853.75;5008535;28;20053;-75
2021/10/12 03:25:44;;;;;;;13.40;5.55;;;;;;;10.06;100.00;101850.28;5012802;28;20102;-77
2021/10/12 03:28:10;;;;;;;18.35;5.85;;;;;;;10.07;100.00;101851.13;5008797;28;20049;-76
2021/10/12 03:30:36;;;;;;;16.35;6.50;;;;;;;10.07;100.00;101867.63;5012481;28;20456;-76
2021/10/12 03:33:04;;;;;;;13.55;6.63;;;;;;;10.03;100.00;101855.47;5020259;28;20443;-76
2021/10/12 03:35:33;;;;;;;15.35;6.85;;;;;;;10.03;100.00;101865.88;5005798;28;20076;-76
2021/10/12 03:38:01;;;;;;;17.00;6.68;;;;;;;10.03;100.00;101854.63;5008861;28;20053;-76
2021/10/12 03:40:27;;;;;;;16.48;6.88;;;;;;;10.07;100.00;101848.53;5009677;28;20058;-76
2021/10/12 03:42:54;;;;;;;18.50;7.07;;;;;;;10.08;100.00;101853.72;5002570;28;20053;-75
2021/10/12 03:45:20;;;;;;;18.35;6.38;;;;;;;10.09;100.00;101844.22;5008549;28;20053;-75
2021/10/12 03:47:47;;;;;;;26.55;7.32;;;;;;;10.08;100.00;101839.88;5008560;28;20054;-75
2021/10/12 03:50:15;;;;;;;16.83;6.88;;;;;;;10.05;100.00;101835.56;5010213;28;20054;-76
2021/10/12 03:52:41;;;;;;;15.15;6.95;;;;;;;10.05;100.00;101829.47;5011683;28;20046;-76
2021/10/12 03:55:09;;;;;;;17.40;7.47;;;;;;;10.00;100.00;101828.63;5003627;28;20612;-76
2021/10/12 03:57:36;;;;;;;21.33;8.57;;;;;;;9.99;100.00;101822.53;5005405;28;20078;-75
2021/10/12 04:00:03;;;;;;;16.90;7.20;;;;;;;9.99;100.00;101826.88;5002650;28;20050;-74
2021/10/12 04:02:29;;;;;;;17.30;7.15;;;;;;;9.98;100.00;101822.53;5013471;28;20052;-75
2021/10/12 04:04:56;;;;;;;15.90;7.60;;;;;;;9.90;100.00;101818.22;5007697;28;20394;-74
2021/10/12 04:07:22;;;;;;;22.55;8.27;;;;;;;9.90;100.00;101818.22;5005615;28;20050;-74
2021/10/12 04:09:49;;;;;;;19.67;8.35;;;;;;;9.91;100.00;101819.06;5007309;28;20054;-75
2021/10/12 04:12:18;;;;;;;16.88;6.95;;;;;;;9.92;100.00;101813.88;5005749;28;20419;-73
2021/10/12 04:14:44;;;;;;;15.82;8.15;;;;;;;9.89;100.00;101808.69;5006338;28;20050;-74
2021/10/12 04:17:10;;;;;;;15.73;7.57;;;;;;;9.90;100.00;101817.31;5005512;28;20056;-74
2021/10/12 04:19:37;;;;;;;16.60;7.35;;;;;;;9.91;100.00;101803.47;5001165;28;20054;-76
2021/10/12 04:22:03;;;;;;;21.17;7.38;;;;;;;9.87;100.00;101802.59;5002547;28;20049;-76
2021/10/12 04:24:30;;;;;;;17.40;7.30;;;;;;;9.83;100.00;101793.09;5008359;28;20474;-76
2021/10/12 04:26:57;;;;;;;15.32;6.85;;;;;;;9.84;100.00;101787.00;5002511;28;20056;-76
2021/10/12 04:29:25;;;;;;;17.38;6.95;;;;;;;9.88;100.00;101788.75;5002805;28;20046;-75
2021/10/12 04:31:51;;;;;;;17.80;8.48;;;;;;;9.85;100.00;101786.13;5003448;28;20050;-75
2021/10/12 04:34:18;;;;;;;18.33;7.10;;;;;;;9.83;100.00;101779.22;5011029;28;20037;-76
2021/10/12 04:36:44;;;;;;;25.92;7.53;;;;;;;9.80;100.00;101775.75;5007657;28;20080;-75
2021/10/12 04:39:11;;;;;;;19.75;7.00;;;;;;;9.84;100.00;101779.22;5005567;28;20492;-75
2021/10/12 04:41:38;;;;;;;18.20;7.72;;;;;;;9.86;100.00;101784.44;5004306;28;20045;-75
2021/10/12 04:44:09;;;;;;;19.73;7.95;;;;;;;9.80;100.00;101780.09;5004508;28;20045;-75
2021/10/12 04:46:38;;;;;;;20.30;6.85;;;;;;;9.88;100.00;101777.50;5002290;28;20146;-75
2021/10/12 04:49:05;;;;;;;16.25;6.00;;;;;;;9.87;100.00;101775.78;5000850;28;20056;-75
2021/10/12 04:51:31;;;;;;;16.95;5.90;;;;;;;9.82;100.00;101775.78;5002304;28;20054;-74
2021/10/12 04:53:58;;;;;;;19.48;7.28;;;;;;;9.80;100.00;101774.91;5004283;28;20049;-77
2021/10/12 04:56:24;;;;;;;18.70;5.57;;;;;;;9.80;100.00;101773.16;5002531;28;20048;-75
2021/10/12 04:58:51;;;;;;;21.75;6.10;;;;;;;9.77;100.00;101772.28;5004571;28;20049;-75
2021/10/12 05:01:17;;;;;;;15.68;6.20;;;;;;;9.76;100.00;101770.53;5001273;28;20057;-74
2021/10/12 05:03:45;;;;;;;10.30;5.38;;;;;;;9.82;100.00;101760.19;4998575;28;20541;-75
2021/10/12 05:06:11;;;;;;;16.92;5.88;;;;;;;9.77;100.00;101759.28;5004641;28;20062;-74
2021/10/12 05:08:38;;;;;;;16.98;5.30;;;;;;;9.82;100.00;101752.38;5004698;28;20084;-75
2021/10/12 05:11:04;;;;;;;18.48;6.65;;;;;;;9.82;100.00;101752.38;5005252;28;20257;-75
2021/10/12 05:13:31;;;;;;;14.23;5.15;;;;;;;9.83;100.00;101754.13;4998218;28;20047;-74
2021/10/12 05:15:59;;;;;;;20.63;6.07;;;;;;;9.86;100.00;101758.44;5005845;28;20049;-75
2021/10/12 05:18:31;;;;;;;19.90;5.80;;;;;;;9.83;100.00;101753.22;5003365;28;20097;-75
2021/10/12 05:20:59;;;;;;;15.05;5.70;;;;;;;9.82;100.00;101747.19;5006845;28;20057;-75
2021/10/12 05:23:25;;;;;;;14.90;5.78;;;;;;;9.85;100.00;101754.09;5000878;28;20046;-75
2021/10/12 05:25:52;;;;;;;11.93;5.13;;;;;;;9.86;100.00;101754.09;5006764;28;20063;-75
2021/10/12 05:28:19;;;;;;;19.15;6.32;;;;;;;9.82;100.00;101744.59;5004755;28;20046;-75
2021/10/12 05:30:45;;;;;;;17.02;5.53;;;;;;;9.85;100.00;101736.78;5004485;28;20058;-74
2021/10/12 05:33:14;;;;;;;17.80;4.43;;;;;;;9.82;100.00;101736.78;5000572;28;20466;-75
2021/10/12 05:35:40;;;;;;;17.05;4.90;;;;;;;9.78;100.00;101733.28;5004478;28;20049;-75
2021/10/12 05:38:08;;;;;;;12.93;4.97;;;;;;;9.74;100.00;101720.31;5007023;28;20756;-74
2021/10/12 05:40:35;;;;;;;16.05;4.65;;;;;;;9.73;100.00;101721.19;5006118;28;20047;-75
2021/10/12 05:43:01;;;;;;;15.43;5.95;;;;;;;9.78;100.00;101722.91;4997983;28;20463;-75
2021/10/12 05:45:28;;;;;;;19.38;4.85;;;;;;;9.80;100.00;101715.97;4999761;28;20818;-74
2021/10/12 05:47:54;;;;;;;18.52;4.90;;;;;;;9.80;100.00;101720.31;5010996;28;20050;-75
2021/10/12 05:50:21;;;;;;;18.63;4.38;;;;;;;9.76;100.00;101718.59;5005682;28;20050;-74
2021/10/12 05:52:54;;;;;;;16.55;4.78;;;;;;;9.78;100.00;101719.47;5003278;28;20057;-75
2021/10/12 05:55:27;;;;;;;18.65;5.25;;;;;;;9.77;100.00;101722.91;5001427;28;20092;-75
2021/10/12 05:58:07;;;;;;;13.85;3.92;;;;;;;9.81;100.00;101722.06;4996912;28;20526;-75
2021/10/12 06:00:34;;;;;;;13.90;4.15;;;;;;;9.80;100.00;101715.97;4992445;28;20141;-75
2021/10/12 06:03:01;;;;;;;14.48;4.05;;;;;;;9.82;100.00;101716.00;4994842;28;20112;-75
2021/10/12 06:05:27;;;;;;;13.68;3.95;;;;;;;9.83;100.00;101711.66;5003252;28;20908;-74
2021/10/12 06:07:55;;;;;;;13.98;4.30;;;;;;;9.81;100.00;101716.88;4996728;28;20579;-75
2021/10/12 06:10:23;;;;;;;16.73;4.65;;;;;;;9.83;100.00;101717.75;4997998;28;20073;-74
2021/10/12 06:12:50;;;;;;;15.18;4.78;;;;;;;9.78;100.00;101712.50;5000418;28;20054;-74
2021/10/12 06:15:17;;;;;;;10.43;3.28;;;;;;;9.86;100.00;101709.91;5000075;28;20955;-75
2021/10/12 06:17:43;;;;;;;11.05;3.65;;;;;;;9.82;100.00;101705.59;5003207;28;20046;-74
2021/10/12 06:20:10;;;;;;;18.02;4.20;;;;;;;9.84;100.00;101709.03;5001415;28;20505;-75
2021/10/12 06:22:37;;;;;;;10.23;3.92;;;;;;;9.89;100.00;101704.72;5004145;28;20479;-74
2021/10/12 06:25:04;;;;;;;10.65;3.95;;;;;;;9.82;100.00;101697.81;5004166;28;20087;-75
2021/10/12 06:27:32;;;;;;;10.43;3.00;;;;;;;9.90;100.00;101696.06;5002498;28;20061;-73
2021/10/12 06:29:58;;;;;;;14.55;3.58;;;;;;;9.80;100.00;101697.78;5005096;28;20046;-74
2021/10/12 06:32:25;;;;;;;16.65;3.85;;;;;;;9.83;100.00;101691.75;5006650;28;20046;-74
2021/10/12 06:34:51;;;;;;;12.23;3.25;;;;;;;9.85;100.00;101691.75;5005102;28;20050;-74
2021/10/12 06:37:17;;;;;;;15.68;4.80;;;;;;;9.90;100.00;101693.47;5005270;28;20049;-75
2021/10/12 06:39:44;;;;;;;12.05;3.38;;;;;;;9.91;100.00;101684.81;5006188;28;20050;-75
2021/10/12 06:42:10;;;;;;;11.52;3.95;;;;;;;9.93;100.00;101697.78;5006616;28;20056;-75
2021/10/12 06:44:38;;;;;;;12.63;4.50;;;;;;;9.87;100.00;101690.88;5005089;28;20423;-75
2021/10/12 06:47:04;;;;;;;12.48;4.60;;;;;;;9.91;100.00;101699.53;5008381;28;20062;-74
2021/10/12 06:49:31;;;;;;;7.22;3.33;;;;;;;9.92;100.00;101691.75;5002716;28;20159;-74
2021/10/12 06:51:57;;;;;;;9.88;3.65;;;;;;;9.97;100.00;101683.94;5007635;28;20066;-75
2021/10/12 06:54:24;;;;;;;10.68;3.53;;;;;;;9.99;100.00;101687.38;5002385;28;20050;-74
2021/10/12 06:56:51;;;;;;;12.63;3.03;;;;;;;10.01;100.00;101679.59;5005356;28;20053;-75
2021/10/12 06:59:17;;;;;;;10.52;3.22;;;;;;;10.06;100.00;101677.84;5006504;28;20101;-74
2021/10/12 07:01:45;;;;;;;9.40;3.40;;;;;;;10.08;100.00;101678.72;5006605;28;20042;-73
2021/10/12 07:04:11;;;;;;;12.02;3.65;;;;;;;10.08;100.00;101681.31;5008361;28;20073;-75
2021/10/12 07:06:38;;;;;;;14.02;3.78;;;;;;;10.13;100.00;101686.50;5007943;28;20061;-74
2021/10/12 07:09:04;;;;;;;17.10;5.18;;;;;;;10.19;100.00;101679.56;5009867;28;20053;-75
2021/10/12 07:11:31;;;;;;;9.60;3.55;;;;;;;10.18;100.00;101680.41;5007471;28;20057;-75
2021/10/12 07:13:57;;;;;;;12.85;3.53;;;;;;;10.20;100.00;101670.88;5009749;28;20545;-75
2021/10/12 07:16:23;;;;;;;12.70;3.10;;;;;;;10.24;100.00;101671.75;5010997;28;20487;-75
2021/10/12 07:18:51;;;;;;;14.40;3.78;;;;;;;10.26;100.00;101665.66;5014831;28;20053;-75
2021/10/12 07:21:18;;;;;;;17.60;3.85;;;;;;;10.27;100.00;101662.19;5003316;28;20533;-75
2021/10/12 07:23:45;;;;;;;13.88;4.07;;;;;;;10.32;100.00;101658.72;5006137;28;20082;-75
2021/10/12 07:26:11;;;;;;;13.10;4.25;;;;;;;10.38;100.00;101661.31;5014557;28;20910;-75
2021/10/12 07:28:38;;;;;;;16.33;5.22;;;;;;;10.38;100.00;101661.31;5010541;28;20045;-75
2021/10/12 07:31:05;;;;;;;14.10;4.60;;;;;;;10.45;100.00;101664.78;5005105;28;20080;-76
2021/10/12 07:33:32;;;;;;;12.77;4.88;;;;;;;10.44;100.00;101661.28;5009995;28;20073;-75
2021/10/12 07:36:00;;;;;;;19.10;5.45;;;;;;;10.52;100.00;101662.16;5014038;28;20049;-76
2021/10/12 07:38:27;;;;;;;11.57;4.80;;;;;;;10.56;100.00;101657.81;5000202;28;20778;-77
2021/10/12 07:40:54;;;;;;;15.55;4.85;;;;;;;10.64;100.00;101647.34;5006570;28;20064;-76
2021/10/12 07:43:21;;;;;;;14.88;5.55;;;;;;;10.63;100.00;101645.63;5006510;28;20539;-76
2021/10/12 07:45:48;;;;;;;12.73;6.15;;;;;;;10.69;100.00;101648.19;5007365;28;20061;-77
2021/10/12 07:48:15;;;;;;;13.13;5.10;;;;;;;10.68;100.00;101636.91;5009339;28;20439;-76
2021/10/12 07:50:42;;;;;;;14.25;5.78;;;;;;;10.70;100.00;101637.75;5006063;28;20549;-76
2021/10/12 07:53:11;;;;;;;13.65;5.55;;;;;;;10.68;100.00;101631.69;4995155;28;20054;-76
2021/10/12 07:55:40;;;;;;;14.95;5.65;;;;;;;10.71;100.00;101638.66;5019553;28;20464;-77
2021/10/12 07:58:06;;;;;;;18.05;5.90;;;;;;;10.73;100.00;101636.88;5010328;28;20440;-76
2021/10/12 08:00:34;;;;;;;16.63;5.63;;;;;;;10.74;100.00;101636.00;5007339;28;20049;-76
2021/10/12 08:03:01;;;;;;;16.73;6.55;;;;;;;10.77;100.00;101629.94;5008757;28;20521;-76
2021/10/12 08:05:28;;;;;;;24.40;7.55;;;;;;;10.80;100.00;101636.00;5009487;28;20054;-76
2021/10/12 08:07:55;;;;;;;13.30;5.35;;;;;;;10.75;100.00;101627.34;5015963;28;20054;-75
2021/10/12 08:10:24;;;;;;;11.20;5.55;;;;;;;10.82;100.00;101623.84;5022882;28;20045;-75
2021/10/12 08:12:55;;;;;;;18.85;7.25;;;;;;;10.79;100.00;101622.97;5015367;28;20058;-76
2021/10/12 08:15:21;;;;;;;15.45;5.60;;;;;;;10.79;100.00;101626.44;5008110;28;20056;-76
2021/10/12 08:17:48;;;;;;;12.65;5.68;;;;;;;10.75;100.00;101627.34;5002604;28;20132;-76
2021/10/12 08:20:15;;;;;;;13.55;6.20;;;;;;;10.74;100.00;101620.41;4997508;28;20440;-74
2021/10/12 08:22:42;;;;;;;11.98;5.63;;;;;;;10.77;100.00;101615.19;5007754;28;20422;-77
2021/10/12 08:25:09;;;;;;;14.23;5.78;;;;;;;10.78;100.00;101622.13;5005527;28;20127;-76
2021/10/12 08:27:37;;;;;;;11.10;5.82;;;;;;;10.80;100.00;101614.28;5005871;28;20046;-75
2021/10/12 08:30:06;;;;;;;12.20;5.32;;;;;;;10.85;100.00;101604.72;5006403;28;20061;-75
2021/10/12 08:32:32;;;;;;;15.30;5.75;;;;;;;10.96;100.00;101602.03;5009973;28;20058;-76
2021/10/12 08:34:59;;;;;;;14.57;6.10;;;;;;;10.93;100.00;101612.50;5007979;28;20209;-76
2021/10/12 08:37:25;;;;;;;21.05;7.38;;;;;;;10.98;100.00;101608.13;5012902;28;20053;-76
2021/10/12 08:39:52;;;;;;;11.13;5.78;;;;;;;10.99;100.00;101605.50;5002431;28;20049;-77
2021/10/12 08:42:24;;;;;;;14.43;5.57;;;;;;;10.98;100.00;101603.75;5009320;28;20045;-76
2021/10/12 08:44:55;;;;;;;13.93;6.93;;;;;;;10.96;100.00;101609.84;5008425;28;20511;-77
2021/10/12 08:47:23;;;;;;;15.50;6.15;;;;;;;11.02;100.00;101605.47;5008595;28;20057;-74
2021/10/12 08:49:50;;;;;;;9.55;5.63;;;;;;;11.00;100.00;101604.63;5006172;28;20049;-76
2021/10/12 08:52:16;;;;;;;13.95;6.40;;;;;;;11.02;100.00;101596.81;5016942;28;20049;-76
2021/10/12 08:54:43;;;;;;;14.35;6.30;;;;;;;10.97;100.00;101601.19;5002655;28;20042;-76
2021/10/12 08:57:11;;;;;;;13.23;6.40;;;;;;;10.88;100.00;101595.16;4999863;28;20042;-76
2021/10/12 08:59:37;;;;;;;12.20;6.68;;;;;;;10.94;100.00;101591.66;5005564;28;20460;-74
2021/10/12 09:02:12;;;;;;;10.55;6.93;;;;;;;10.94;100.00;101595.97;5011914;28;20045;-76
2021/10/12 09:04:39;;;;;;;;;;;;;;;11.08;100.00;101599.38;5002571;28;20080;-76
2021/10/12 09:07:16;;;;;;;9.23;6.07;;;;;;;11.02;100.00;101600.28;5001853;28;20502;-76
2021/10/12 09:09:44;;;;;;;18.85;9.73;;;;;;;11.02;100.00;101592.47;5009850;28;20454;-76
2021/10/12 09:12:11;;;;;;;12.68;7.35;;;;;;;11.11;100.00;101582.84;5004459;28;20046;-76
2021/10/12 09:14:54;;;;;;;11.35;6.43;;;;;;;11.24;100.00;101586.22;5001396;28;20388;-76
2021/10/12 09:17:30;;;;;;;12.73;6.97;;;;;;;11.24;100.00;101576.66;4998201;28;20058;-76
2021/10/12 09:19:58;;;;;;;16.25;6.57;;;;;;;11.20;100.00;101578.44;5011624;28;20069;-76
2021/10/12 09:22:24;;;;;;;10.90;6.43;;;;;;;11.18;100.00;101582.78;5003248;28;20046;-76
2021/10/12 09:24:51;;;;;;;10.77;7.43;;;;;;;11.21;100.00;101571.47;5004151;28;20427;-75
2021/10/12 09:27:20;;;;;;;9.20;6.40;;;;;;;11.20;100.00;101570.63;4994689;28;20530;-76
2021/10/12 09:29:48;;;;;;;9.38;6.45;;;;;;;11.18;100.00;101581.91;5006070;28;20048;-76
2021/10/12 09:32:15;;;;;;;10.65;6.82;;;;;;;11.24;100.00;101575.78;4997692;28;20058;-76
2021/10/12 09:34:44;;;;;;;9.43;6.38;;;;;;;11.27;100.00;101573.16;5005266;28;20046;-75
2021/10/12 09:37:16;;;;;;;11.88;6.72;;;;;;;11.27;100.00;101581.88;5009411;28;20049;-74
2021/10/12 09:39:45;;;;;;;9.77;7.95;;;;;;;11.37;100.00;101569.59;5009054;28;20099;-75
2021/10/12 09:42:14;;;;;;;13.52;7.53;;;;;;;11.37;100.00;101567.00;5006292;28;20053;-76
2021/10/12 09:44:51;;;;;;;13.10;7.75;;;;;;;11.44;100.00;101571.28;5005595;28;20054;-74
2021/10/12 09:47:18;;;;;;;13.95;7.63;;;;;;;11.41;100.00;101568.72;5007507;28;20096;-76
2021/10/12 09:49:47;;;;;;;12.95;8.75;;;;;;;11.44;100.00;101566.06;4999415;28;20048;-76
2021/10/12 09:52:15;;;;;;;18.60;9.18;;;;;;;11.44;100.00;101565.22;5004384;28;20057;-75
2021/10/12 09:54:47;;;;;;;12.88;8.93;;;;;;;11.41;100.00;101558.28;5002629;28;20062;-76
2021/10/12 09:57:14;;;;;;;15.13;8.98;;;;;;;11.43;100.00;101559.13;5001802;28;20076;-76
2021/10/12 09:59:40;;;;;;;14.88;9.35;;;;;;;11.45;100.00;101562.56;5006204;28;20045;-76
2021/10/12 10:02:12;;;;;;;14.98;8.38;;;;;;;11.44;100.00;101554.78;5003608;28;20038;-76
2021/10/12 10:04:39;;;;;;;12.07;8.02;;;;;;;11.77;100.00;101558.78;4997498;28;20510;-76
2021/10/12 10:07:17;;;;;;;10.68;7.65;;;;;;;12.08;100.00;101561.06;5001857;28;20049;-76
2021/10/12 10:09:45;;;;;;;15.55;7.07;;;;;;;12.37;100.00;101559.84;5005313;28;20061;-76
2021/10/12 10:12:12;;;;;;;12.23;7.95;;;;;;;12.47;99.93;101557.97;4997744;28;20506;-76
2021/10/12 10:14:39;;;;;;;11.80;6.88;;;;;;;12.67;100.00;101551.59;4997030;28;20056;-77
2021/10/12 10:17:06;;;;;;;15.15;6.97;;;;;;;12.85;99.13;101550.44;4994672;28;20496;-77
2021/10/12 10:19:35;;;;;;;12.30;7.00;;;;;;;13.04;97.95;101543.19;5000202;28;20049;-75
2021/10/12 10:22:02;;;;;;;12.82;6.57;;;;;;;13.18;96.79;101543.78;5002373;28;20050;-76
2021/10/12 10:24:48;;;;;;;11.95;6.55;;;;;;;13.32;95.10;101550.53;5003322;28;20049;-77
2021/10/12 10:27:34;;;;;;;12.35;6.45;;;;;;;13.41;94.96;101537.34;4998576;28;20140;-76
2021/10/12 10:30:37;;;;;;;19.98;7.05;;;;;;;13.54;94.89;101537.97;4995585;28;20068;-75
2021/10/12 10:33:05;;;;;;;14.90;6.88;;;;;;;13.60;94.36;101523.94;4940560;28;20737;-76
2021/10/12 10:35:35;;;;;;;16.10;6.00;;;;;;;13.59;93.60;101523.09;4939962;28;20062;-75
2021/10/12 10:38:35;;;;;;;12.38;6.30;;;;;;;13.67;92.75;101515.09;4972278;28;20058;-76
2021/10/12 10:41:26;;;;;;;11.55;6.28;;;;;;;13.81;92.69;101517.44;4954711;28;20062;-77
2021/10/12 10:44:01;;;;;;;11.70;6.38;;;;;;;13.86;92.34;101512.97;4998959;28;20060;-78
2021/10/12 10:46:39;;;;;;;13.63;6.68;;;;;;;13.83;92.09;101508.66;5002965;28;20124;-77
2021/10/12 10:49:06;;;;;;;16.17;6.28;;;;;;;13.97;92.00;101491.84;5002913;28;20064;-77
2021/10/12 10:51:50;;;;;;;13.32;6.60;;;;;;;14.13;90.84;101497.56;5001834;28;20053;-77
2021/10/12 10:55:00;;;;;;;16.20;6.55;;;;;;;14.25;91.31;101484.22;5002424;28;20643;-77
2021/10/12 10:57:29;;;;;;;12.20;5.32;;;;;;;14.41;91.31;101482.09;4997061;28;20140;-77
2021/10/12 11:00:31;;;;;;;15.80;6.20;;;;;;;14.56;90.82;101474.81;4993359;28;20054;-78
2021/10/12 11:02:57;;;;;;;19.42;6.38;;;;;;;14.69;89.50;101475.38;4920333;29;20059;-74
2021/10/12 11:05:41;;;;;;;10.38;4.38;;;;;;;14.85;88.20;101471.47;4924797;29;20055;-78
2021/10/12 11:08:09;;;;;;;12.52;5.32;;;;;;;14.75;88.37;101475.22;4963823;28;20128;-78
2021/10/12 11:10:36;;;;;;;9.80;5.50;;;;;;;14.73;89.07;101475.28;5002351;28;20435;-78
2021/10/12 11:13:04;;;;;;;15.30;6.30;;;;;;;14.70;88.63;101474.50;5002946;28;20055;-78
2021/10/12 11:15:32;;;;;;;16.50;5.60;;;;;;;14.58;89.02;101473.88;4998009;28;20519;-78